Time;durP1;ratioP1;P1;durP2;ratioP2;P2;SDS_P1;SDS_P2;PMS_P1;PMS_P2;Temp;Humidity;BMP_temperature;BMP_pressure;BME280_temperature;BME280_humidity;BME280_pressure;Samples;Min_cycle;Max_cycle;Signal;HPM_P1;HPM_P2
2021/08/22 00:00:50;;;;;;;12.00;2.70;;;15.60;99.90;;;;;;5809375;24;20028;-82
2021/08/22 00:03:44;;;;;;;9.85;2.83;;;15.60;99.90;;;;;;5904088;24;20320;-82
2021/08/22 00:06:29;;;;;;;13.68;3.17;;;15.60;99.90;;;;;;5910461;24;20484;-83
2021/08/22 00:09:21;;;;;;;14.05;2.95;;;15.60;99.90;;;;;;5923612;24;20511;-81
2021/08/22 00:12:41;;;;;;;;;;;;;;;;;;;;;
2021/08/22 00:15:27;;;;;;;;;;;;;;;;;;;;;
2021/08/22 00:18:21;;;;;;;14.10;3.35;;;15.60;99.90;;;;;;5910869;24;20139;-81
2021/08/22 00:21:12;;;;;;;13.82;2.83;;;15.60;99.90;;;;;;5943400;23;20040;-82
2021/08/22 00:24:31;;;;;;;11.20;2.92;;;15.60;99.90;;;;;;5934242;23;20029;-82
2021/08/22 00:27:14;;;;;;;;;;;;;;;;;;;;;
2021/08/22 00:29:52;;;;;;;10.93;2.67;;;15.60;99.90;;;;;;6004954;23;20019;-81
2021/08/22 00:33:12;;;;;;;9.40;2.70;;;15.60;99.90;;;;;;5979675;23;20020;-81
2021/08/22 00:36:09;;;;;;;13.02;2.75;;;15.60;99.90;;;;;;6016370;23;20021;-83
2021/08/22 00:39:04;;;;;;;11.40;2.97;;;15.60;99.90;;;;;;6018907;23;20027;-82
2021/08/22 00:42:02;;;;;;;;;;;;;;;;;;;;;
2021/08/22 00:44:42;;;;;;;11.70;2.95;;;15.50;99.90;;;;;;6005479;23;20453;-82
2021/08/22 00:47:31;;;;;;;10.93;2.92;;;15.50;99.90;;;;;;5915847;23;20016;-83
2021/08/22 00:50:46;;;;;;;9.23;3.10;;;15.50;99.90;;;;;;5813780;24;20036;-80
2021/08/22 00:53:43;;;;;;;7.80;3.40;;;15.50;99.90;;;;;;5804938;24;20199;-82
2021/08/22 00:56:44;;;;;;;13.10;3.42;;;15.50;99.90;;;;;;5828026;24;20019;-82
2021/08/22 00:59:22;;;;;;;12.27;3.10;;;15.50;99.90;;;;;;5879002;24;20032;-81
2021/08/22 01:02:08;;;;;;;9.13;3.03;;;15.40;99.90;;;;;;5938282;24;20048;-81
2021/08/22 01:04:55;;;;;;;12.90;3.13;;;15.40;99.90;;;;;;5918515;24;20025;-82
2021/08/22 01:08:12;;;;;;;9.90;3.28;;;15.40;99.90;;;;;;5918200;23;20022;-82
2021/08/22 01:10:57;;;;;;;10.40;3.40;;;15.40;99.90;;;;;;6022893;23;20450;-82
2021/08/22 01:14:06;;;;;;;;;;;;;;;;;;;;;
2021/08/22 01:16:52;;;;;;;13.73;2.97;;;15.40;99.90;;;;;;6166333;23;20100;-82
2021/08/22 01:20:09;;;;;;;9.60;3.13;;;15.40;99.90;;;;;;6103841;23;20017;-82
2021/08/22 01:22:52;;;;;;;12.15;3.33;;;15.40;99.90;;;;;;6126740;23;20446;-79
2021/08/22 01:26:22;;;;;;;9.10;2.95;;;15.40;99.90;;;;;;6127365;23;20088;-82
2021/08/22 01:46:49;;;;;;;14.05;3.78;;;15.50;99.90;;;;;;6052697;22;3256951;-82
2021/08/22 01:49:41;;;;;;;12.43;4.03;;;15.40;99.90;;;;;;6153886;23;20377;-82
2021/08/22 01:52:14;;;;;;;14.27;3.58;;;15.30;99.90;;;;;;6180485;23;20095;-83
2021/08/22 01:54:47;;;;;;;15.10;3.92;;;15.30;99.90;;;;;;6177541;23;20083;-83
2021/08/22 01:57:26;;;;;;;15.75;4.32;;;15.30;99.90;;;;;;6084365;23;20071;-80
2021/08/22 01:59:57;;;;;;;20.58;5.15;;;15.40;99.90;;;;;;6170530;23;20016;-78
2021/08/22 02:02:24;;;;;;;14.77;4.30;;;15.40;99.90;;;;;;6190644;23;20144;-82
2021/08/22 02:04:58;;;;;;;10.35;4.18;;;15.40;99.90;;;;;;6179255;23;20442;-80
2021/08/22 02:07:32;;;;;;;14.10;4.28;;;15.40;99.90;;;;;;6190447;23;20024;-82
2021/08/22 02:10:08;;;;;;;13.40;4.40;;;15.40;99.90;;;;;;6190966;23;20028;-82
2021/08/22 02:12:38;;;;;;;17.02;4.85;;;15.40;99.90;;;;;;6190166;23;20096;-81
2021/08/22 02:15:22;;;;;;;12.85;5.05;;;15.40;99.90;;;;;;6178948;23;20085;-78
2021/08/22 02:17:58;;;;;;;15.63;4.97;;;15.40;99.90;;;;;;6191015;23;20027;-82
2021/08/22 02:20:26;;;;;;;14.23;4.82;;;15.30;99.90;;;;;;6190184;23;20029;-82
2021/08/22 02:22:55;;;;;;;9.67;4.30;;;15.30;99.90;;;;;;6191303;23;20025;-82
2021/08/22 02:25:27;;;;;;;16.25;4.13;;;15.30;99.90;;;;;;6190152;23;20477;-82
2021/08/22 02:27:56;;;;;;;11.88;4.03;;;15.30;99.90;;;;;;6190871;23;20039;-80
2021/08/22 02:30:23;;;;;;;;;;;15.30;99.90;;;;;;6176686;23;20021;-80
2021/08/22 02:32:51;;;;;;;10.38;4.32;;;15.30;99.90;;;;;;6190867;23;19916;-82
2021/08/22 02:35:18;;;;;;;21.20;5.60;;;15.20;99.90;;;;;;6178734;23;20020;-79
2021/08/22 02:37:45;;;;;;;20.88;4.40;;;15.20;99.90;;;;;;6190429;23;20039;-81
2021/08/22 02:40:13;;;;;;;14.93;4.32;;;15.20;99.90;;;;;;6189922;23;20028;-83
2021/08/22 02:42:40;;;;;;;15.20;4.75;;;15.20;99.90;;;;;;6190807;23;20024;-83
2021/08/22 02:45:08;;;;;;;12.32;4.45;;;15.20;99.90;;;;;;6189816;23;20096;-81
2021/08/22 02:47:35;;;;;;;11.25;4.80;;;15.20;99.90;;;;;;6184578;23;20021;-82
2021/08/22 02:50:05;;;;;;;10.10;4.30;;;15.20;99.90;;;;;;6184112;23;20017;-83
2021/08/22 02:52:32;;;;;;;19.52;4.05;;;15.20;99.90;;;;;;6182849;23;20044;-82
2021/08/22 02:54:59;;;;;;;11.82;3.88;;;15.20;99.90;;;;;;6183793;23;20017;-80
2021/08/22 02:57:26;;;;;;;14.10;3.83;;;15.20;99.90;;;;;;6182843;23;20016;-82
2021/08/22 02:59:53;;;;;;;12.25;3.92;;;15.20;99.90;;;;;;6183159;23;20017;-82
2021/08/22 03:02:20;;;;;;;16.23;4.53;;;15.20;99.90;;;;;;6182928;23;20021;-81
2021/08/22 03:04:48;;;;;;;15.27;3.95;;;15.20;99.90;;;;;;6184238;23;20021;-82
2021/08/22 03:07:15;;;;;;;6.88;3.85;;;15.20;99.90;;;;;;6182644;23;20021;-82
2021/08/22 03:09:45;;;;;;;13.27;3.92;;;15.20;99.90;;;;;;6183826;23;20021;-82
2021/08/22 03:12:12;;;;;;;13.55;4.28;;;15.20;99.90;;;;;;6183386;23;20037;-79
2021/08/22 03:14:42;;;;;;;12.98;4.60;;;15.20;99.90;;;;;;6183514;23;20311;-81
2021/08/22 03:17:09;;;;;;;15.73;4.47;;;15.10;99.90;;;;;;6182584;23;20032;-82
2021/08/22 03:19:36;;;;;;;15.35;3.90;;;15.10;99.90;;;;;;6183843;23;20017;-82
2021/08/22 03:22:03;;;;;;;15.32;3.80;;;15.10;99.90;;;;;;6172001;23;20027;-81
2021/08/22 03:24:31;;;;;;;13.80;3.88;;;15.10;99.90;;;;;;6170584;23;20096;-81
2021/08/22 03:26:58;;;;;;;14.90;4.10;;;15.10;99.90;;;;;;6183446;23;20017;-82
2021/08/22 03:29:25;;;;;;;13.13;3.60;;;15.10;99.90;;;;;;6182701;23;20049;-81
2021/08/22 03:31:55;;;;;;;15.57;4.32;;;15.10;99.90;;;;;;6183190;23;20020;-82
2021/08/22 03:34:22;;;;;;;13.65;4.30;;;15.10;99.90;;;;;;6182505;23;20017;-83
2021/08/22 03:36:49;;;;;;;12.82;3.95;;;15.10;99.90;;;;;;6171830;23;20318;-80
2021/08/22 03:39:16;;;;;;;12.85;4.78;;;15.10;99.90;;;;;;6182134;23;20105;-82
2021/08/22 03:41:43;;;;;;;10.07;4.32;;;15.10;99.90;;;;;;6183248;23;20326;-79
2021/08/22 03:44:10;;;;;;;14.70;3.90;;;15.10;99.90;;;;;;6182597;23;20017;-82
2021/08/22 03:46:37;;;;;;;11.77;4.00;;;15.20;99.90;;;;;;6183573;23;20035;-81
2021/08/22 03:49:04;;;;;;;12.43;4.88;;;15.20;99.90;;;;;;6182739;23;20100;-78
2021/08/22 03:51:31;;;;;;;13.15;4.20;;;15.20;99.90;;;;;;6183070;23;20027;-80
2021/08/22 03:53:58;;;;;;;13.07;4.63;;;15.20;99.90;;;;;;6183250;23;20084;-81
2021/08/22 03:56:25;;;;;;;11.48;3.88;;;15.20;99.90;;;;;;6182464;23;20048;-82
2021/08/22 03:58:54;;;;;;;10.23;4.40;;;15.20;99.90;;;;;;6182928;23;20013;-80
2021/08/22 04:01:24;;;;;;;17.55;4.43;;;15.30;99.90;;;;;;6172569;23;20412;-81
2021/08/22 04:03:51;;;;;;;15.63;4.85;;;15.30;99.90;;;;;;6183162;23;20287;-81
2021/08/22 04:06:18;;;;;;;9.10;4.28;;;15.30;99.90;;;;;;6168496;23;20017;-81
2021/08/22 04:08:45;;;;;;;16.33;4.35;;;15.30;99.90;;;;;;6183568;23;20021;-82
2021/08/22 04:11:14;;;;;;;9.52;4.00;;;15.30;99.90;;;;;;6171429;23;20076;-83
2021/08/22 04:13:42;;;;;;;15.65;4.40;;;15.40;99.90;;;;;;6183213;23;20021;-79
2021/08/22 04:16:09;;;;;;;13.32;4.18;;;15.40;99.90;;;;;;6182327;23;20025;-82
2021/08/22 04:18:36;;;;;;;13.45;4.72;;;15.40;99.90;;;;;;6182881;23;20072;-81
2021/08/22 04:21:04;;;;;;;11.90;4.05;;;15.40;99.90;;;;;;6182783;23;20028;-80
2021/08/22 04:23:33;;;;;;;16.98;4.40;;;15.50;99.90;;;;;;6181925;23;20021;-82
2021/08/22 04:26:03;;;;;;;13.50;3.78;;;15.50;99.90;;;;;;6183425;23;20025;-82
2021/08/22 04:28:30;;;;;;;14.73;4.28;;;15.50;99.90;;;;;;6181737;23;20031;-82
2021/08/22 04:30:57;;;;;;;13.20;3.70;;;15.50;99.90;;;;;;6182694;23;20450;-82
2021/08/22 04:33:28;;;;;;;12.23;3.83;;;15.50;99.90;;;;;;6169377;23;20058;-83
2021/08/22 04:35:58;;;;;;;14.75;4.35;;;15.50;99.90;;;;;;6182409;23;20037;-82
2021/08/22 04:38:28;;;;;;;12.63;3.53;;;15.50;99.90;;;;;;6181350;23;20021;-82
2021/08/22 04:40:58;;;;;;;16.58;3.78;;;15.50;99.90;;;;;;6182808;23;20140;-80
2021/08/22 04:43:30;;;;;;;13.45;3.90;;;15.40;99.90;;;;;;6182049;23;20069;-80
2021/08/22 04:46:02;;;;;;;14.55;4.28;;;15.40;99.90;;;;;;6182374;23;20473;-81
2021/08/22 04:48:31;;;;;;;13.45;3.67;;;15.40;99.90;;;;;;6181019;23;20311;-82
2021/08/22 04:50:58;;;;;;;9.15;3.17;;;15.40;99.90;;;;;;6182717;23;20434;-82
2021/08/22 04:53:27;;;;;;;14.10;3.83;;;15.40;99.90;;;;;;6169845;23;20028;-81
2021/08/22 04:55:56;;;;;;;11.57;3.72;;;15.40;99.90;;;;;;6182426;23;20016;-82
2021/08/22 04:58:26;;;;;;;14.10;3.78;;;15.30;99.90;;;;;;6157862;23;20026;-82
2021/08/22 05:00:53;;;;;;;18.45;4.30;;;15.30;99.90;;;;;;6182787;23;20045;-81
2021/08/22 05:03:20;;;;;;;14.15;3.88;;;15.30;99.90;;;;;;6181713;23;20021;-82
2021/08/22 05:05:51;;;;;;;8.70;3.65;;;15.30;99.90;;;;;;6182489;23;20028;-82
2021/08/22 05:08:19;;;;;;;10.35;3.58;;;15.30;99.90;;;;;;6182061;23;20095;-80
2021/08/22 05:10:49;;;;;;;9.05;3.65;;;15.30;99.90;;;;;;6182500;23;20045;-80
2021/08/22 05:13:21;;;;;;;13.57;4.28;;;15.30;99.90;;;;;;6181937;23;20013;-82
2021/08/22 05:15:50;;;;;;;17.25;3.88;;;15.30;99.90;;;;;;6151953;23;20021;-82
2021/08/22 05:18:18;;;;;;;15.55;3.97;;;15.30;99.90;;;;;;6170060;23;20017;-82
2021/08/22 05:20:49;;;;;;;;;;;15.30;99.90;;;;;;6169950;23;20084;-81
2021/08/22 05:23:20;;;;;;;13.35;3.45;;;15.30;99.90;;;;;;6181825;23;19923;-82
2021/08/22 05:25:47;;;;;;;16.30;3.60;;;15.20;99.90;;;;;;6182714;23;20373;-82
2021/08/22 05:28:14;;;;;;;9.82;3.40;;;15.20;99.90;;;;;;6181108;23;20020;-83
2021/08/22 05:30:47;;;;;;;15.18;3.80;;;15.20;99.90;;;;;;6182370;23;20014;-82
2021/08/22 05:33:14;;;;;;;18.63;4.13;;;15.20;99.90;;;;;;6181348;23;20326;-83
2021/08/22 05:35:47;;;;;;;14.00;3.90;;;15.20;99.90;;;;;;6165636;23;20017;-83
2021/08/22 05:38:19;;;;;;;13.40;3.60;;;15.10;99.90;;;;;;6181420;23;20025;-79
2021/08/22 05:40:46;;;;;;;14.88;3.47;;;15.20;99.90;;;;;;6183010;23;20025;-81
2021/08/22 05:43:15;;;;;;;14.73;3.33;;;15.10;99.90;;;;;;6181344;23;20020;-83
2021/08/22 05:45:58;;;;;;;;;;;;;;;;;;;;;
2021/08/22 05:48:29;;;;;;;13.55;3.30;;;15.20;99.90;;;;;;6184680;23;20045;-82
2021/08/22 05:51:04;;;;;;;16.25;3.92;;;15.20;99.90;;;;;;6170680;23;20021;-80
2021/08/22 05:53:31;;;;;;;14.93;3.58;;;15.20;99.90;;;;;;6154929;23;20076;-82
2021/08/22 05:56:07;;;;;;;12.95;3.28;;;15.20;99.90;;;;;;6169552;23;20028;-83
2021/08/22 05:58:46;;;;;;;;;;;;;;;;;;;;;
2021/08/22 06:01:13;;;;;;;12.88;2.88;;;15.30;99.90;;;;;;6160089;23;20020;-82
2021/08/22 06:03:48;;;;;;;8.40;2.60;;;15.30;99.90;;;;;;6151623;23;20017;-83
2021/08/22 06:06:17;;;;;;;10.30;2.72;;;15.30;99.90;;;;;;6149422;23;20059;-81
2021/08/22 06:08:48;;;;;;;11.13;3.35;;;15.40;99.90;;;;;;6158758;23;20017;-82
2021/08/22 06:11:22;;;;;;;11.63;3.55;;;15.40;99.90;;;;;;6180634;23;20028;-83
2021/08/22 06:13:50;;;;;;;8.68;2.50;;;15.40;99.90;;;;;;6165613;23;20035;-82
2021/08/22 06:16:25;;;;;;;9.40;2.60;;;15.50;99.90;;;;;;6170490;23;20016;-81
2021/08/22 06:18:58;;;;;;;10.88;2.80;;;15.50;99.90;;;;;;6165863;23;20088;-81
2021/08/22 06:25:01;;;;;;;;;;;;;;;;;;;;;
2021/08/22 06:28:03;;;;;;;9.27;2.30;;;15.60;99.90;;;;;;6062546;23;20425;-83
2021/08/22 06:31:25;;;;;;;;;;;;;;;;;;;;;
2021/08/22 06:34:46;;;;;;;;;;;;;;;;;;;;;
2021/08/22 06:37:38;;;;;;;12.65;2.78;;;15.70;99.90;;;;;;6046342;23;20050;-81
2021/08/22 06:50:21;;;;;;;;;;;;;;;;;;;;;
2021/08/22 12:34:45;;;;;;;2.60;0.90;;;21.50;99.90;;;;;;6114405;22;1512080;-81
2021/08/22 12:38:25;;;;;;;;;;;;;;;;;;;;;
2021/08/22 12:41:24;;;;;;;3.78;1.17;;;21.40;99.90;;;;;;5924493;23;20036;-80
2021/08/22 12:44:14;;;;;;;;;;;;;;;;;;;;;
2021/08/22 12:47:31;;;;;;;3.15;0.93;;;21.60;99.90;;;;;;5965614;23;20501;-83
2021/08/22 13:27:49;;;;;;;3.03;0.82;;;21.50;99.90;;;;;;6121069;22;1453447;-80
2021/08/22 14:06:48;;;;;;;;;;;;;;;;;;;;;
2021/08/22 15:38:14;;;;;;;6.37;1.40;;;21.50;99.90;;;;;;5916894;22;8189627;-84
2021/08/22 15:44:27;;;;;;;4.47;1.35;;;21.60;99.90;;;;;;5844715;24;20080;-82
2021/08/22 15:51:11;;;;;;;7.75;1.40;;;21.40;99.90;;;;;;5780655;24;20366;-80
2021/08/22 15:54:54;;;;;;;;;;;;;;;;;;;;;
2021/08/22 16:01:45;;;;;;;;;;;;;;;;;;;;;
2021/08/22 16:22:32;;;;;;;0.60;0.60;;;21.30;99.90;;;;;;5437395;22;21249589;-83
2021/08/22 16:25:24;;;;;;;5.85;1.30;;;21.30;99.90;;;;;;6024915;23;20022;-84
2021/08/22 16:27:59;;;;;;;5.18;1.40;;;21.20;99.90;;;;;;6098317;23;20466;-84
2021/08/22 16:31:02;;;;;;;;;;;;;;;;;;;;;
2021/08/22 16:34:26;;;;;;;;;;;;;;;;;;;;;
2021/08/22 16:37:31;;;;;;;6.88;1.42;;;21.30;99.90;;;;;;5905803;24;20024;-83
2021/08/22 16:41:08;;;;;;;;;;;;;;;;;;;;;
2021/08/22 16:43:49;;;;;;;;;;;;;;;;;;;;;
2021/08/22 16:46:46;;;;;;;5.90;1.50;;;21.40;99.90;;;;;;5865107;24;20017;-83
2021/08/22 16:52:29;;;;;;;5.43;1.10;;;21.40;99.90;;;;;;5842324;24;20174;-84
2021/08/22 16:55:39;;;;;;;4.05;1.23;;;21.40;99.90;;;;;;5855650;24;20364;-84
2021/08/22 16:58:38;;;;;;;;;;;;;;;;;;;;;
2021/08/22 17:01:37;;;;;;;;;;;;;;;;;;;;;
2021/08/22 17:04:44;;;;;;;;;;;;;;;;;;;;;
2021/08/22 17:07:24;;;;;;;4.38;1.15;;;21.40;99.90;;;;;;5983504;23;20027;-84
2021/08/22 17:09:59;;;;;;;3.25;1.10;;;21.40;99.90;;;;;;5984817;23;20027;-83
2021/08/22 17:12:30;;;;;;;3.10;1.42;;;21.30;99.90;;;;;;5900332;23;20024;-85
2021/08/22 17:15:14;;;;;;;6.72;1.20;;;21.30;99.90;;;;;;5949456;23;20026;-84
2021/08/22 17:17:41;;;;;;;5.15;1.20;;;21.20;99.90;;;;;;6064045;23;20022;-84
2021/08/22 17:21:34;;;;;;;;;;;;;;;;;;;;;
2021/08/22 17:24:52;;;;;;;;;;;;;;;;;;;;;
2021/08/22 18:49:55;;;;;;;6.05;1.60;;;18.90;99.90;;;;;;5952541;23;20024;-83
2021/08/22 18:53:21;;;;;;;3.58;1.52;;;18.80;99.90;;;;;;5894712;23;20111;-83
2021/08/22 19:00:21;;;;;;;;;;;;;;;;;;;;;
2021/08/22 19:06:28;;;;;;;6.47;1.88;;;18.20;99.90;;;;;;5799549;24;20322;-81
2021/08/22 19:12:46;;;;;;;;;;;;;;;;;;;;;
2021/08/22 19:15:35;;;;;;;6.68;1.45;;;18.00;99.90;;;;;;5793055;24;20030;-82
2021/08/22 19:18:46;;;;;;;;;;;;;;;;;;;;;
2021/08/22 19:21:55;;;;;;;;;;;;;;;;;;;;;
2021/08/22 19:24:53;;;;;;;4.47;1.48;;;17.80;99.90;;;;;;5783718;24;20037;-81
2021/08/22 19:28:28;;;;;;;5.47;1.27;;;17.70;99.90;;;;;;5809225;24;20117;-83
2021/08/22 19:31:00;;;;;;;5.72;1.60;;;17.70;99.90;;;;;;5771428;24;20025;-82
2021/08/22 19:34:03;;;;;;;5.60;1.90;;;17.60;99.90;;;;;;5834929;24;20060;-83
2021/08/22 19:39:54;;;;;;;;;;;;;;;;;;;;;
2021/08/22 19:43:30;;;;;;;7.88;1.92;;;17.50;99.90;;;;;;5837114;23;20024;-83
2021/08/22 19:46:34;;;;;;;6.55;1.73;;;17.50;99.90;;;;;;5876240;23;20134;-82
2021/08/22 19:49:08;;;;;;;7.65;1.90;;;17.40;99.90;;;;;;5881247;24;20108;-80
2021/08/22 19:52:21;;;;;;;3.83;1.48;;;17.40;99.90;;;;;;5786311;24;20059;-82
2021/08/22 19:55:21;;;;;;;6.80;1.70;;;17.30;99.90;;;;;;5841987;24;20486;-81
2021/08/22 19:58:26;;;;;;;6.57;1.90;;;17.30;99.90;;;;;;5926130;24;20545;-79
2021/08/22 20:01:09;;;;;;;6.47;1.95;;;17.20;99.90;;;;;;5915786;24;20031;-80
2021/08/22 20:03:45;;;;;;;6.82;1.90;;;17.20;99.90;;;;;;5899846;23;20031;-82
2021/08/22 20:06:36;;;;;;;4.45;1.63;;;17.20;99.90;;;;;;5884434;24;20032;-81
2021/08/22 20:09:07;;;;;;;4.50;1.70;;;17.20;99.90;;;;;;5938603;24;20025;-82
2021/08/22 20:11:58;;;;;;;8.85;1.95;;;17.20;99.90;;;;;;5857528;24;20030;-82
2021/08/22 20:14:46;;;;;;;6.20;1.80;;;17.10;99.90;;;;;;5807048;24;20034;-81
2021/08/22 20:17:33;;;;;;;6.53;1.80;;;17.10;99.90;;;;;;5970578;23;20043;-81
2021/08/22 20:20:18;;;;;;;6.20;1.92;;;17.10;99.90;;;;;;5994373;23;20023;-82
2021/08/22 20:23:10;;;;;;;5.63;2.15;;;17.00;99.90;;;;;;5999666;23;20368;-80
2021/08/22 20:25:58;;;;;;;;;;;;;;;;;;;;;
2021/08/22 20:28:48;;;;;;;4.82;2.13;;;17.00;99.90;;;;;;6049918;23;20019;-82
2021/08/22 20:31:20;;;;;;;6.20;2.03;;;17.00;99.90;;;;;;6147208;23;20021;-79
2021/08/22 20:34:08;;;;;;;4.37;1.70;;;16.90;99.90;;;;;;6158401;23;20071;-80
2021/08/22 20:36:41;;;;;;;5.47;2.15;;;16.90;99.90;;;;;;6152031;23;20029;-80
2021/08/22 20:39:43;;;;;;;7.15;2.30;;;16.90;99.90;;;;;;6049431;23;20113;-82
2021/08/22 20:42:23;;;;;;;;;;;;;;;;;;;;;
2021/08/22 20:45:17;;;;;;;;;;;;;;;;;;;;;
2021/08/22 20:48:14;;;;;;;5.47;1.77;;;16.90;99.90;;;;;;6072788;23;20514;-82
2021/08/22 20:51:07;;;;;;;;;;;;;;;;;;;;;
2021/08/22 20:53:50;;;;;;;;;;;;;;;;;;;;;
2021/08/22 20:57:09;;;;;;;;;;;;;;;;;;;;;
2021/08/22 20:59:52;;;;;;;6.30;2.20;;;16.70;99.90;;;;;;6005416;23;20480;-83
2021/08/22 21:02:31;;;;;;;9.38;2.65;;;16.70;99.90;;;;;;5974051;23;20035;-82
2021/08/22 21:05:01;;;;;;;8.02;2.85;;;16.60;99.90;;;;;;5989646;23;20345;-81
2021/08/22 21:07:39;;;;;;;9.13;2.45;;;16.60;99.90;;;;;;5959154;23;20325;-82
2021/08/22 21:10:08;;;;;;;8.50;2.40;;;16.60;99.90;;;;;;5961157;23;20028;-82
2021/08/22 21:12:35;;;;;;;9.63;2.47;;;16.60;99.90;;;;;;5983437;23;20027;-81
2021/08/22 21:15:14;;;;;;;7.07;2.60;;;16.50;99.90;;;;;;6054544;23;20021;-84
2021/08/22 21:17:45;;;;;;;8.38;2.90;;;16.50;99.90;;;;;;6060828;23;20371;-81
2021/08/22 21:20:17;;;;;;;7.25;2.63;;;16.50;99.90;;;;;;6056039;23;20018;-82
2021/08/22 21:22:52;;;;;;;8.25;2.90;;;16.50;99.90;;;;;;6154148;23;20040;-85
2021/08/22 21:25:25;;;;;;;8.02;3.00;;;16.50;99.90;;;;;;6150894;23;20047;-84
2021/08/22 21:27:54;;;;;;;6.60;2.65;;;16.50;99.90;;;;;;6152473;23;20040;-81
2021/08/22 21:30:23;;;;;;;6.70;2.83;;;16.50;99.90;;;;;;6142746;23;20025;-79
2021/08/22 21:33:10;;;;;;;5.28;2.50;;;16.40;99.90;;;;;;6161061;23;20041;-83
2021/08/22 21:35:39;;;;;;;6.68;2.90;;;16.40;99.90;;;;;;6151150;23;20021;-81
2021/08/22 21:38:17;;;;;;;5.43;3.05;;;16.40;99.90;;;;;;6137855;23;20022;-83
2021/08/22 21:40:55;;;;;;;;;;;;;;;;;;;;;
2021/08/22 21:43:34;;;;;;;8.07;2.85;;;16.30;99.90;;;;;;6164909;23;20435;-83
2021/08/22 21:46:13;;;;;;;6.13;2.75;;;16.20;99.90;;;;;;6096165;23;20025;-82
2021/08/22 21:48:40;;;;;;;7.50;2.65;;;16.20;99.90;;;;;;6122641;23;20081;-81
2021/08/22 21:51:11;;;;;;;8.18;2.88;;;16.20;99.90;;;;;;6113881;23;20045;-83
2021/08/22 21:53:45;;;;;;;9.07;3.10;;;16.10;99.90;;;;;;6112419;23;20023;-82
2021/08/22 21:56:14;;;;;;;6.78;2.63;;;16.10;99.90;;;;;;6108799;23;20077;-83
2021/08/22 21:58:42;;;;;;;5.18;2.60;;;16.10;99.90;;;;;;6123050;23;20106;-83
2021/08/22 22:01:17;;;;;;;7.40;2.75;;;16.10;99.90;;;;;;6109138;23;20018;-83
2021/08/22 22:03:52;;;;;;;9.60;2.88;;;16.10;99.90;;;;;;6123422;23;20296;-83
2021/08/22 22:06:20;;;;;;;7.82;2.50;;;16.10;99.90;;;;;;6082046;23;20017;-81
2021/08/22 22:08:47;;;;;;;8.00;2.60;;;16.10;99.90;;;;;;6099207;23;20024;-83
2021/08/22 22:11:15;;;;;;;8.68;2.53;;;16.10;99.90;;;;;;6109589;23;20473;-83
2021/08/22 22:13:45;;;;;;;6.20;2.63;;;16.00;99.90;;;;;;6123487;23;20466;-83
2021/08/22 22:16:13;;;;;;;8.25;3.33;;;16.00;99.90;;;;;;6122410;23;20037;-83
2021/08/22 22:18:42;;;;;;;10.60;3.20;;;16.00;99.90;;;;;;6123279;23;20034;-83
2021/08/22 22:21:12;;;;;;;7.22;3.53;;;15.90;99.90;;;;;;6111374;23;20458;-83
2021/08/22 22:23:47;;;;;;;8.05;3.00;;;15.90;99.90;;;;;;6123274;23;20018;-83
2021/08/22 22:26:21;;;;;;;10.27;3.45;;;15.90;99.90;;;;;;6111032;23;20014;-84
2021/08/22 22:28:51;;;;;;;10.23;3.45;;;15.90;99.90;;;;;;6112861;23;20014;-83
2021/08/22 22:31:21;;;;;;;7.32;3.20;;;15.80;99.90;;;;;;6121437;23;20088;-81
2021/08/22 22:33:58;;;;;;;6.95;3.22;;;15.80;99.90;;;;;;6112009;23;20018;-83
2021/08/22 22:36:30;;;;;;;6.45;3.20;;;15.70;99.90;;;;;;6121670;23;20026;-83
2021/08/22 22:38:59;;;;;;;4.97;2.80;;;15.70;99.90;;;;;;6123043;23;20446;-83
2021/08/22 22:41:31;;;;;;;7.60;2.78;;;15.70;99.90;;;;;;6109743;23;20030;-83
2021/08/22 22:43:58;;;;;;;9.02;3.20;;;15.70;99.90;;;;;;6128123;23;20332;-83
2021/08/22 22:46:30;;;;;;;5.72;3.05;;;15.70;99.90;;;;;;6170719;23;20104;-84
2021/08/22 22:48:59;;;;;;;6.72;2.72;;;15.70;99.90;;;;;;6161801;23;20021;-84
2021/08/22 22:51:38;;;;;;;8.63;2.95;;;15.70;99.90;;;;;;6146073;23;20441;-84
2021/08/22 22:54:07;;;;;;;7.20;2.70;;;15.70;99.90;;;;;;6152207;23;20456;-79
2021/08/22 22:56:35;;;;;;;7.07;2.28;;;15.70;99.90;;;;;;6159431;23;20021;-81
2021/08/22 22:59:03;;;;;;;3.50;2.17;;;15.70;99.90;;;;;;6148888;23;20031;-81
2021/08/22 23:01:31;;;;;;;3.17;2.00;;;15.70;99.90;;;;;;6158575;23;20068;-82
2021/08/22 23:03:58;;;;;;;6.93;2.08;;;15.70;99.90;;;;;;6158856;23;20023;-83
2021/08/22 23:06:25;;;;;;;6.63;2.10;;;15.60;99.90;;;;;;6158605;23;20496;-83
2021/08/22 23:08:52;;;;;;;5.38;2.42;;;15.60;99.90;;;;;;6159486;23;20019;-84
2021/08/22 23:11:19;;;;;;;4.95;2.08;;;15.60;99.90;;;;;;6158361;23;20100;-83
2021/08/22 23:13:51;;;;;;;4.20;2.20;;;15.60;99.90;;;;;;6158559;23;20017;-81
2021/08/22 23:16:18;;;;;;;5.55;2.03;;;15.60;99.90;;;;;;6158137;23;20040;-83
2021/08/22 23:18:45;;;;;;;6.13;2.15;;;15.50;99.90;;;;;;6159681;23;20451;-82
2021/08/22 23:21:17;;;;;;;7.47;2.20;;;15.50;99.90;;;;;;6145570;23;20460;-83
2021/08/22 23:23:51;;;;;;;8.15;2.40;;;15.50;99.90;;;;;;6154274;23;20016;-82
2021/08/22 23:26:18;;;;;;;5.07;1.95;;;15.50;99.90;;;;;;6158067;23;20020;-83
2021/08/22 23:28:45;;;;;;;7.07;2.20;;;15.50;99.90;;;;;;6159262;23;20021;-83
2021/08/22 23:31:17;;;;;;;6.85;2.40;;;15.50;99.90;;;;;;6146541;23;20013;-83
2021/08/22 23:33:47;;;;;;;5.20;2.20;;;15.50;99.90;;;;;;6147106;23;20025;-84
2021/08/22 23:36:16;;;;;;;7.15;2.22;;;15.40;99.90;;;;;;6145413;23;20021;-83
2021/08/22 23:38:46;;;;;;;6.30;1.90;;;15.40;99.90;;;;;;6166378;23;20031;-83
2021/08/22 23:41:13;;;;;;;3.35;1.75;;;15.40;99.90;;;;;;6158240;23;20445;-81
2021/08/22 23:43:42;;;;;;;6.70;2.03;;;15.40;99.90;;;;;;6147422;23;20047;-83
2021/08/22 23:46:21;;;;;;;3.03;2.17;;;15.40;99.90;;;;;;6131864;23;20040;-83
2021/08/22 23:48:48;;;;;;;5.45;2.00;;;15.40;99.90;;;;;;6165599;23;20088;-83
2021/08/22 23:51:18;;;;;;;6.78;2.25;;;15.30;99.90;;;;;;6161460;23;20020;-84
2021/08/22 23:53:45;;;;;;;5.78;2.08;;;15.30;99.90;;;;;;6154832;23;20017;-81
2021/08/22 23:56:22;;;;;;;10.10;2.25;;;15.30;99.90;;;;;;6134351;23;20021;-83
2021/08/22 23:58:49;;;;;;;6.30;2.20;;;15.20;99.90;;;;;;6180129;23;20071;-82
